createdAt,value
2022-09-17T00:01:56.099Z,74.28
2022-09-17T00:07:00.414Z,74.04
2022-09-17T00:12:04.235Z,74.20
2022-09-17T00:17:08.032Z,73.98
2022-09-17T00:22:11.437Z,73.98
2022-09-17T00:27:14.874Z,74.16
2022-09-17T00:32:18.587Z,73.98
2022-09-17T00:37:23.249Z,74.03
2022-09-17T00:42:26.567Z,74.34
2022-09-17T00:47:38.991Z,74.24
2022-09-17T00:52:55.201Z,74.22
2022-09-17T00:58:01.847Z,73.99
2022-09-17T01:03:06.318Z,74.05
2022-09-17T01:08:25.237Z,74.24
2022-09-17T01:13:53.106Z,74.02
2022-09-17T01:19:05.596Z,73.97
2022-09-17T01:24:35.426Z,74.41
2022-09-17T01:29:41.731Z,74.38
2022-09-17T01:35:03.976Z,74.47
2022-09-17T01:40:42.835Z,74.06
2022-09-17T01:45:57.823Z,74.28
2022-09-17T01:51:14.958Z,74.26
2022-09-17T01:56:22.979Z,74.06
2022-09-17T02:01:30.123Z,74.08
2022-09-17T02:06:38.790Z,74.14
2022-09-17T02:11:46.324Z,74.41
2022-09-17T02:16:57.521Z,74.23
2022-09-17T02:22:33.156Z,74.35
2022-09-17T02:27:48.094Z,74.43
2022-09-17T02:32:51.671Z,74.42
2022-09-17T02:37:55.537Z,74.04
2022-09-17T02:43:10.799Z,74.26
2022-09-17T02:48:34.091Z,74.29
2022-09-17T02:53:49.303Z,74.24
2022-09-17T02:59:31.586Z,74.15
2022-09-17T03:04:37.434Z,73.93
2022-09-17T03:09:41.670Z,73.92
2022-09-17T03:14:48.137Z,74.19
2022-09-17T03:19:55.215Z,74.05
2022-09-17T03:24:58.795Z,73.99
2022-09-17T03:30:02.237Z,73.92
2022-09-17T03:35:10.646Z,73.96
2022-09-17T03:40:18.607Z,73.88
2022-09-17T03:45:22.302Z,73.36
2022-09-17T03:50:25.875Z,73.73
2022-09-17T03:55:29.632Z,73.47
2022-09-17T04:00:33.825Z,73.21
2022-09-17T04:05:37.482Z,73.13
2022-09-17T04:10:41.477Z,72.85
2022-09-17T04:15:46.263Z,72.82
2022-09-17T04:20:49.670Z,73.09
2022-09-17T04:25:53.098Z,72.76
2022-09-17T04:30:56.980Z,72.42
2022-09-17T04:36:00.495Z,72.44
2022-09-17T04:41:03.837Z,72.44
2022-09-17T04:46:07.668Z,71.89
2022-09-17T04:51:11.192Z,70.27
2022-09-17T04:56:14.502Z,69.21
2022-09-17T05:01:18.160Z,69.56
2022-09-17T05:06:22.131Z,69.45
2022-09-17T05:11:25.945Z,68.86
2022-09-17T05:16:29.613Z,68.48
2022-09-17T05:21:33.746Z,68.25
2022-09-17T05:26:37.099Z,68.04
2022-09-17T05:31:41.032Z,67.88
2022-09-17T05:36:44.725Z,67.56
2022-09-17T05:41:47.968Z,67.33
2022-09-17T05:46:53.516Z,67.10
2022-09-17T05:51:56.834Z,67.09
2022-09-17T05:57:01.151Z,67.08
2022-09-17T06:02:05.628Z,66.66
2022-09-17T06:07:09.563Z,66.65
2022-09-17T06:12:13.059Z,65.63
2022-09-17T06:17:21.999Z,66.10
2022-09-17T06:22:25.668Z,66.02
2022-09-17T06:27:33.206Z,65.54
2022-09-17T06:32:36.713Z,65.54
2022-09-17T06:37:40.158Z,65.30
2022-09-17T06:42:50.981Z,65.09
2022-09-17T06:47:54.472Z,65.01
2022-09-17T06:52:57.893Z,65.11
2022-09-17T06:58:01.279Z,64.75
2022-09-17T07:03:04.845Z,64.41
2022-09-17T07:08:08.223Z,64.38
2022-09-17T07:13:11.695Z,64.33
2022-09-17T07:18:15.268Z,64.06
2022-09-17T07:23:18.783Z,64.12
2022-09-17T07:28:22.955Z,64.04
2022-09-17T07:33:28.123Z,63.44
2022-09-17T07:38:32.547Z,63.36
2022-09-17T07:43:37.321Z,63.02
2022-09-17T07:48:40.991Z,62.50
2022-09-17T07:53:45.137Z,62.31
2022-09-17T07:58:49.358Z,61.89
2022-09-17T08:03:54.522Z,61.56
2022-09-17T08:09:01.402Z,61.16
2022-09-17T08:14:05.035Z,60.29
2022-09-17T08:19:08.768Z,60.42
2022-09-17T08:24:12.271Z,59.86
2022-09-17T08:29:16.119Z,58.95
2022-09-17T08:34:19.571Z,58.99
2022-09-17T08:39:22.804Z,59.21
2022-09-17T08:44:41.605Z,58.91
2022-09-17T08:49:51.034Z,58.29
2022-09-17T08:55:23.694Z,58.01
2022-09-17T09:00:35.668Z,57.42
2022-09-17T09:05:47.463Z,57.24
2022-09-17T09:10:57.777Z,57.08
2022-09-17T09:16:06.004Z,56.72
2022-09-17T09:21:25.738Z,56.53
2022-09-17T09:26:43.828Z,56.53
2022-09-17T09:32:02.224Z,56.14
2022-09-17T09:37:26.199Z,56.39
2022-09-17T09:42:33.289Z,55.82
2022-09-17T09:48:05.700Z,56.10
2022-09-17T09:53:15.029Z,55.59
2022-09-17T09:58:40.599Z,55.50
2022-09-17T10:03:49.029Z,55.89
2022-09-17T10:08:55.225Z,55.59
2022-09-17T10:14:26.256Z,55.96
2022-09-17T10:19:33.565Z,56.04
2022-09-17T10:24:39.443Z,56.05
2022-09-17T10:29:47.902Z,56.42
2022-09-17T10:35:25.788Z,56.00
2022-09-17T10:40:32.467Z,56.25
2022-09-17T10:45:39.580Z,55.93
2022-09-17T10:50:49.775Z,55.49
2022-09-17T10:55:56.412Z,55.73
2022-09-17T11:01:11.938Z,55.36
2022-09-17T11:06:26.904Z,55.72
2022-09-17T11:11:41.925Z,55.54
2022-09-17T11:16:52.268Z,55.75
2022-09-17T11:22:06.462Z,55.99
2022-09-17T11:27:35.906Z,55.77
2022-09-17T11:32:55.375Z,55.43
2022-09-17T11:38:13.862Z,55.64
2022-09-17T11:43:36.263Z,55.68
2022-09-17T11:48:56.060Z,54.94
2022-09-17T11:54:08.812Z,55.52
2022-09-17T11:59:39.167Z,55.74
2022-09-17T12:04:49.955Z,55.50
2022-09-17T12:10:14.694Z,55.52
2022-09-17T12:15:25.322Z,55.67
2022-09-17T12:20:36.886Z,56.55
2022-09-17T12:26:00.473Z,56.66
2022-09-17T12:31:14.799Z,56.88
2022-09-17T12:36:45.267Z,57.11
2022-09-17T12:42:11.602Z,57.53
2022-09-17T12:47:34.806Z,57.83
2022-09-17T12:52:58.517Z,58.13
2022-09-17T12:58:26.630Z,58.13
2022-09-17T13:03:37.708Z,58.08
2022-09-17T13:08:45.470Z,58.45
2022-09-17T13:13:55.604Z,58.68
2022-09-17T13:19:22.223Z,58.86
2022-09-17T13:24:29.415Z,58.84
2022-09-17T13:29:44.983Z,58.85
2022-09-17T13:39:57.305Z,59.14
2022-09-17T13:45:03.493Z,59.56
2022-09-17T13:50:24.560Z,59.72
2022-09-17T13:55:35.746Z,60.06
2022-09-17T14:01:02.242Z,60.23
2022-09-17T14:06:06.685Z,60.20
2022-09-17T14:11:30.434Z,60.03
2022-09-17T14:16:57.030Z,60.34
2022-09-17T14:22:12.691Z,60.58
2022-09-17T14:27:38.651Z,60.37
2022-09-17T14:32:46.135Z,60.77
2022-09-17T14:37:56.278Z,60.79
2022-09-17T14:43:03.358Z,60.94
2022-09-17T14:48:24.931Z,61.29
2022-09-17T14:53:28.196Z,61.42
2022-09-17T14:58:35.316Z,61.68
2022-09-17T15:03:38.765Z,61.50
2022-09-17T15:08:45.887Z,61.58
2022-09-17T15:13:53.351Z,61.70
2022-09-17T15:18:59.965Z,61.84
2022-09-17T15:24:28.961Z,62.43
2022-09-17T15:29:34.715Z,62.25
2022-09-17T15:34:38.113Z,62.91
2022-09-17T15:39:43.235Z,63.08
2022-09-17T15:44:47.209Z,63.33
2022-09-17T15:50:14.407Z,63.53
2022-09-17T15:55:28.167Z,63.58
2022-09-17T16:00:31.737Z,63.78
2022-09-17T16:05:47.360Z,63.72
2022-09-17T16:10:50.798Z,64.16
2022-09-17T16:15:54.772Z,64.57
2022-09-17T16:20:58.847Z,64.75
2022-09-17T16:26:02.502Z,64.82
2022-09-17T16:31:06.849Z,64.56
2022-09-17T16:36:11.642Z,64.71
2022-09-17T16:41:15.164Z,65.27
2022-09-17T16:46:18.722Z,65.22
2022-09-17T16:51:22.081Z,65.26
2022-09-17T16:56:25.325Z,65.38
2022-09-17T17:01:29.177Z,65.50
2022-09-17T17:06:32.719Z,65.88
2022-09-17T17:11:36.153Z,65.97
2022-09-17T17:16:40.215Z,66.62
2022-09-17T17:21:47.282Z,66.66
2022-09-17T17:26:50.686Z,66.59
2022-09-17T17:31:54.203Z,66.54
2022-09-17T17:36:59.453Z,66.90
2022-09-17T17:42:03.089Z,66.87
2022-09-17T17:47:06.719Z,67.00
2022-09-17T17:52:10.521Z,67.36
2022-09-17T17:57:14.156Z,67.22
2022-09-17T18:02:17.781Z,67.64
2022-09-17T18:07:21.293Z,67.85
2022-09-17T18:12:26.927Z,67.92
2022-09-17T18:17:31.094Z,67.86
2022-09-17T18:22:34.341Z,67.79
2022-09-17T18:27:40.404Z,68.33
2022-09-17T18:32:44.296Z,68.11
2022-09-17T18:37:48.065Z,68.06
2022-09-17T18:42:52.404Z,68.45
2022-09-17T18:47:55.868Z,68.35
2022-09-17T18:52:59.200Z,68.64
2022-09-17T18:58:02.677Z,68.76
2022-09-17T19:03:06.530Z,68.88
2022-09-17T19:08:13.779Z,69.36
2022-09-17T19:13:20.764Z,69.12
2022-09-17T19:18:24.101Z,69.14
2022-09-17T19:23:27.505Z,69.55
2022-09-17T19:28:30.620Z,69.72
2022-09-17T19:33:33.983Z,69.50
2022-09-17T19:38:37.639Z,69.69
2022-09-17T19:43:44.688Z,70.12
2022-09-17T19:48:53.385Z,70.08
2022-09-17T19:53:57.052Z,69.98
2022-09-17T19:59:00.300Z,70.43
2022-09-17T20:04:03.780Z,70.39
2022-09-17T20:09:12.290Z,70.35
2022-09-17T20:14:16.178Z,70.29
2022-09-17T20:19:19.700Z,70.64
2022-09-17T20:24:23.079Z,70.31
2022-09-17T20:29:27.873Z,70.48
2022-09-17T20:34:34.588Z,70.49
2022-09-17T20:39:38.006Z,70.53
2022-09-17T20:44:41.532Z,70.48
2022-09-17T20:49:44.901Z,70.75
2022-09-17T20:54:48.937Z,70.84
2022-09-17T20:59:52.505Z,70.83
2022-09-17T21:04:56.154Z,71.25
2022-09-17T21:09:59.944Z,71.13
2022-09-17T21:15:03.363Z,70.98
2022-09-17T21:20:07.595Z,71.38
2022-09-17T21:25:10.975Z,71.14
2022-09-17T21:30:14.996Z,71.22
2022-09-17T21:35:18.422Z,71.58
2022-09-17T21:40:22.396Z,71.45
2022-09-17T21:45:25.872Z,71.42
2022-09-17T21:50:29.311Z,71.80
2022-09-17T21:55:32.798Z,71.54
2022-09-17T22:00:39.746Z,71.71
2022-09-17T22:05:46.817Z,71.85
2022-09-17T22:10:50.681Z,71.51
2022-09-17T22:15:59.404Z,71.49
2022-09-17T22:21:36.348Z,71.75
2022-09-17T22:26:42.340Z,71.69
2022-09-17T22:31:47.097Z,71.97
2022-09-17T22:36:50.953Z,71.49
2022-09-17T22:41:54.898Z,71.90
2022-09-17T22:46:58.526Z,71.84
2022-09-17T22:52:02.128Z,71.98
2022-09-17T22:57:05.808Z,71.73
2022-09-17T23:02:09.745Z,71.82
2022-09-17T23:07:13.300Z,71.84
2022-09-17T23:12:17.293Z,71.70
2022-09-17T23:17:20.862Z,71.71
2022-09-17T23:22:24.458Z,71.52
2022-09-17T23:27:28.371Z,71.88
2022-09-17T23:32:31.610Z,71.65
2022-09-17T23:37:34.920Z,71.68
2022-09-17T23:42:38.131Z,72.03
2022-09-17T23:47:41.502Z,71.86
2022-09-17T23:52:45.197Z,71.56
2022-09-17T23:57:48.634Z,71.79
